createdAt,value
2024-03-02T00:00:03.580Z,22.64
2024-03-02T00:02:29.989Z,22.65
2024-03-02T00:04:56.234Z,22.64
2024-03-02T00:07:22.729Z,22.63
2024-03-02T00:09:49.238Z,22.63
2024-03-02T00:12:15.496Z,22.63
2024-03-02T00:14:41.924Z,22.62
2024-03-02T00:17:08.240Z,22.63
2024-03-02T00:19:34.698Z,22.62
2024-03-02T00:22:01.204Z,22.60
2024-03-02T00:24:27.608Z,22.60
2024-03-02T00:26:53.978Z,22.60
2024-03-02T00:29:20.427Z,22.60
2024-03-02T00:31:46.788Z,22.60
2024-03-02T00:34:13.208Z,22.58
2024-03-02T00:36:39.646Z,22.58
2024-03-02T00:39:05.927Z,22.56
2024-03-02T00:41:32.364Z,22.57
2024-03-02T00:43:58.728Z,22.56
2024-03-02T00:46:25.125Z,22.56
2024-03-02T00:48:51.538Z,22.56
2024-03-02T00:51:17.946Z,22.56
2024-03-02T00:53:44.428Z,22.54
2024-03-02T00:56:10.881Z,22.54
2024-03-02T00:58:37.298Z,22.54
2024-03-02T01:01:03.885Z,22.55
2024-03-02T01:03:30.247Z,22.54
2024-03-02T01:05:56.563Z,22.54
2024-03-02T01:08:22.813Z,22.52
2024-03-02T01:10:49.153Z,22.53
2024-03-02T01:13:15.597Z,22.54
2024-03-02T01:15:41.979Z,22.52
2024-03-02T01:18:08.298Z,22.51
2024-03-02T01:20:34.723Z,22.51
2024-03-02T01:23:01.171Z,22.50
2024-03-02T01:25:27.553Z,22.50
2024-03-02T01:27:54.080Z,22.50
2024-03-02T01:30:20.369Z,22.50
2024-03-02T01:32:46.712Z,22.49
2024-03-02T01:35:13.078Z,22.50
2024-03-02T01:37:39.517Z,22.50
2024-03-02T01:40:05.843Z,22.48
2024-03-02T01:42:32.217Z,22.47
2024-03-02T01:44:58.673Z,22.47
2024-03-02T01:47:24.904Z,22.47
2024-03-02T01:49:51.265Z,22.48
2024-03-02T01:52:17.713Z,22.47
2024-03-02T01:54:44.091Z,22.46
2024-03-02T01:57:10.469Z,22.43
2024-03-02T01:59:37.108Z,22.46
2024-03-02T02:02:03.463Z,22.44
2024-03-02T02:04:29.769Z,22.44
2024-03-02T02:06:56.140Z,22.44
2024-03-02T02:09:22.549Z,22.46
2024-03-02T02:11:48.845Z,22.47
2024-03-02T02:14:15.174Z,22.43
2024-03-02T02:16:41.517Z,22.43
2024-03-02T02:19:07.951Z,22.43
2024-03-02T02:21:34.294Z,22.44
2024-03-02T02:24:00.797Z,22.42
2024-03-02T02:26:27.136Z,22.41
2024-03-02T02:28:53.591Z,22.40
2024-03-02T02:31:20.013Z,22.41
2024-03-02T02:33:46.424Z,22.41
2024-03-02T02:36:12.842Z,22.40
2024-03-02T02:38:39.206Z,22.39
2024-03-02T02:41:05.653Z,22.39
2024-03-02T02:43:31.999Z,22.39
2024-03-02T02:45:58.531Z,22.39
2024-03-02T02:48:24.816Z,22.39
2024-03-02T02:50:51.083Z,22.39
2024-03-02T02:53:17.463Z,22.37
2024-03-02T02:55:43.770Z,22.38
2024-03-02T02:58:10.174Z,22.37
2024-03-02T03:00:36.770Z,22.36
2024-03-02T03:03:03.027Z,22.37
2024-03-02T03:05:29.365Z,22.37
2024-03-02T03:07:55.667Z,22.36
2024-03-02T03:10:21.987Z,22.37
2024-03-02T03:12:48.375Z,22.34
2024-03-02T03:15:14.649Z,22.33
2024-03-02T03:17:41.003Z,22.33
2024-03-02T03:20:07.611Z,22.33
2024-03-02T03:22:33.795Z,22.32
2024-03-02T03:25:00.244Z,22.32
2024-03-02T03:27:26.583Z,22.31
2024-03-02T03:29:52.871Z,22.32
2024-03-02T03:32:19.311Z,22.32
2024-03-02T03:34:45.771Z,22.31
2024-03-02T03:37:12.039Z,22.31
2024-03-02T03:39:38.400Z,22.31
2024-03-02T03:42:04.700Z,22.29
2024-03-02T03:44:31.208Z,22.28
2024-03-02T03:46:57.627Z,22.27
2024-03-02T03:49:24.027Z,22.26
2024-03-02T03:51:50.398Z,22.26
2024-03-02T03:54:16.844Z,22.27
2024-03-02T03:56:43.258Z,22.28
2024-03-02T03:59:09.565Z,22.27
2024-03-02T04:01:36.027Z,22.26
2024-03-02T04:04:02.497Z,22.27
2024-03-02T04:06:28.964Z,22.28
2024-03-02T04:08:55.172Z,22.27
2024-03-02T04:11:21.544Z,22.27
2024-03-02T04:13:47.981Z,22.26
2024-03-02T04:16:14.429Z,22.26
2024-03-02T04:18:40.990Z,22.25
2024-03-02T04:21:07.148Z,22.25
2024-03-02T04:23:33.459Z,22.25
2024-03-02T04:25:59.869Z,22.26
2024-03-02T04:28:26.137Z,22.25
2024-03-02T04:30:52.626Z,22.25
2024-03-02T04:33:19.012Z,22.25
2024-03-02T04:35:45.359Z,22.24
2024-03-02T04:38:11.776Z,22.24
2024-03-02T04:40:38.219Z,22.23
2024-03-02T04:43:04.704Z,22.23
2024-03-02T04:45:31.128Z,22.24
2024-03-02T04:47:57.433Z,22.23
2024-03-02T04:50:23.867Z,22.24
2024-03-02T04:52:50.170Z,22.23
2024-03-02T04:55:16.632Z,22.23
2024-03-02T04:57:42.972Z,22.24
2024-03-02T05:00:09.303Z,22.24
2024-03-02T05:02:35.692Z,22.23
2024-03-02T05:05:02.146Z,22.22
2024-03-02T05:07:28.602Z,22.22
2024-03-02T05:09:55.115Z,22.23
2024-03-02T05:12:21.498Z,22.22
2024-03-02T05:14:47.799Z,22.21
2024-03-02T05:17:14.217Z,22.21
2024-03-02T05:19:40.651Z,22.21
2024-03-02T05:22:06.956Z,22.21
2024-03-02T05:24:33.383Z,22.21
2024-03-02T05:26:59.732Z,22.21
2024-03-02T05:29:26.165Z,22.21
2024-03-02T05:31:52.599Z,22.20
2024-03-02T05:34:19.217Z,22.20
2024-03-02T05:36:45.490Z,22.21
2024-03-02T05:39:11.896Z,22.20
2024-03-02T05:41:38.403Z,22.20
2024-03-02T05:44:04.640Z,22.20
2024-03-02T05:46:31.096Z,22.20
2024-03-02T05:48:57.555Z,22.18
2024-03-02T05:51:23.939Z,22.20
2024-03-02T05:53:50.301Z,22.18
2024-03-02T05:56:16.720Z,22.19
2024-03-02T05:58:43.204Z,22.19
2024-03-02T06:01:09.640Z,22.19
2024-03-02T06:03:36.091Z,22.17
2024-03-02T06:06:02.470Z,22.18
2024-03-02T06:08:28.769Z,22.18
2024-03-02T06:10:55.285Z,22.17
2024-03-02T06:13:21.669Z,22.14
2024-03-02T06:15:48.040Z,22.17
2024-03-02T06:18:14.412Z,22.16
2024-03-02T06:20:40.868Z,22.16
2024-03-02T06:23:07.299Z,22.14
2024-03-02T06:25:33.716Z,22.16
2024-03-02T06:28:00.200Z,22.14
2024-03-02T06:30:26.473Z,22.16
2024-03-02T06:32:52.794Z,22.14
2024-03-02T06:35:19.152Z,22.14
2024-03-02T06:37:46.512Z,22.13
2024-03-02T06:40:12.952Z,22.14
2024-03-02T06:42:39.437Z,22.14
2024-03-02T06:45:05.819Z,22.13
2024-03-02T06:47:32.280Z,22.13
2024-03-02T06:49:58.573Z,22.13
2024-03-02T06:52:25.421Z,22.14
2024-03-02T06:54:51.632Z,22.13
2024-03-02T06:57:18.004Z,22.16
2024-03-02T06:59:44.401Z,22.13
2024-03-02T07:02:10.885Z,22.16
2024-03-02T07:04:37.195Z,22.14
2024-03-02T07:07:03.641Z,22.14
2024-03-02T07:09:36.072Z,22.13
2024-03-02T07:12:02.385Z,22.14
2024-03-02T07:14:28.706Z,22.14
2024-03-02T07:16:55.707Z,22.14
2024-03-02T07:19:21.514Z,22.14
2024-03-02T07:21:47.858Z,22.16
2024-03-02T07:24:14.287Z,22.14
2024-03-02T07:29:07.052Z,22.14
2024-03-02T07:31:33.478Z,22.14
2024-03-02T07:33:59.800Z,22.14
2024-03-02T07:36:26.260Z,22.14
2024-03-02T07:38:52.584Z,22.13
2024-03-02T07:41:19.009Z,22.14
2024-03-02T07:43:45.440Z,22.14
2024-03-02T07:46:11.903Z,22.14
2024-03-02T07:48:38.180Z,22.13
2024-03-02T07:51:04.640Z,22.13
2024-03-02T07:53:30.938Z,22.14
2024-03-02T07:55:57.344Z,22.13
2024-03-02T07:58:23.737Z,22.14
2024-03-02T08:00:52.552Z,22.16
2024-03-02T08:03:16.500Z,22.14
2024-03-02T08:05:42.956Z,22.14
2024-03-02T08:08:09.353Z,22.14
2024-03-02T08:10:35.823Z,22.14
2024-03-02T08:13:02.327Z,22.14
2024-03-02T08:15:28.685Z,22.13
2024-03-02T08:17:55.174Z,22.14
2024-03-02T08:20:21.541Z,22.14
2024-03-02T08:22:48.028Z,22.14
2024-03-02T08:25:14.384Z,22.16
2024-03-02T08:27:41.310Z,22.14
2024-03-02T08:30:07.256Z,22.14
2024-03-02T08:32:33.693Z,22.16
2024-03-02T08:35:00.029Z,22.17
2024-03-02T08:37:26.542Z,22.17
2024-03-02T08:39:53.101Z,22.17
2024-03-02T08:42:19.448Z,22.17
2024-03-02T08:44:45.655Z,22.17
2024-03-02T08:47:11.978Z,22.18
2024-03-02T08:49:38.321Z,22.18
2024-03-02T08:52:04.776Z,22.19
2024-03-02T08:54:31.227Z,22.19
2024-03-02T08:56:57.607Z,22.20
2024-03-02T08:59:24.058Z,22.21
2024-03-02T09:01:50.576Z,22.23
2024-03-02T09:04:16.719Z,22.24
2024-03-02T09:06:43.270Z,22.23
2024-03-02T09:09:09.473Z,22.23
2024-03-02T09:11:35.840Z,22.24
2024-03-02T09:14:02.129Z,22.26
2024-03-02T09:16:28.569Z,22.26
2024-03-02T09:18:55.018Z,22.27
2024-03-02T09:21:21.493Z,22.27
2024-03-02T09:23:47.938Z,22.27
2024-03-02T09:26:14.296Z,22.29
2024-03-02T09:28:40.726Z,22.29
2024-03-02T09:31:07.305Z,22.31
2024-03-02T09:33:33.747Z,22.32
2024-03-02T09:36:00.103Z,22.32
2024-03-02T09:38:26.534Z,22.32
2024-03-02T09:40:52.803Z,22.31
2024-03-02T09:43:19.245Z,22.34
2024-03-02T09:45:45.612Z,22.33
2024-03-02T09:48:11.908Z,22.34
2024-03-02T09:50:38.205Z,22.35
2024-03-02T09:53:04.670Z,22.35
2024-03-02T09:55:31.107Z,22.35
2024-03-02T09:57:57.541Z,22.38
2024-03-02T10:00:24.003Z,22.37
2024-03-02T10:02:50.449Z,22.38
2024-03-02T10:05:16.737Z,22.39
2024-03-02T10:07:43.165Z,22.39
2024-03-02T10:10:09.499Z,22.39
2024-03-02T10:12:35.937Z,22.39
2024-03-02T10:15:02.236Z,22.40
2024-03-02T10:17:28.805Z,22.39
2024-03-02T10:19:55.030Z,22.40
2024-03-02T10:22:21.548Z,22.41
2024-03-02T10:24:50.093Z,22.40
2024-03-02T10:27:14.427Z,22.41
2024-03-02T10:29:41.021Z,22.42
2024-03-02T10:32:07.204Z,22.41
2024-03-02T10:34:33.606Z,22.40
2024-03-02T10:37:00.750Z,22.41
2024-03-02T10:39:26.437Z,22.40
2024-03-02T10:41:52.822Z,22.40
2024-03-02T10:44:19.240Z,22.41
2024-03-02T10:46:45.700Z,22.40
2024-03-02T10:49:12.147Z,22.41
2024-03-02T10:51:38.573Z,22.40
2024-03-02T10:54:04.904Z,22.39
2024-03-02T10:56:31.338Z,22.39
2024-03-02T10:58:57.699Z,22.39
2024-03-02T11:01:24.140Z,22.40
2024-03-02T11:03:50.556Z,22.42
2024-03-02T11:06:16.946Z,22.39
2024-03-02T11:08:44.571Z,22.40
2024-03-02T11:11:09.698Z,22.37
2024-03-02T11:13:38.500Z,22.39
2024-03-02T11:16:02.528Z,22.39
2024-03-02T11:18:28.878Z,22.39
2024-03-02T11:20:55.206Z,22.39
2024-03-02T11:23:21.605Z,22.39
2024-03-02T11:25:47.993Z,22.40
2024-03-02T11:28:14.440Z,22.38
2024-03-02T11:30:40.904Z,22.39
2024-03-02T11:33:07.229Z,22.40
2024-03-02T11:35:33.624Z,22.38
2024-03-02T11:38:00.153Z,22.39
2024-03-02T11:40:26.567Z,22.37
2024-03-02T11:42:52.942Z,22.38
2024-03-02T11:45:19.362Z,22.38
2024-03-02T11:47:45.753Z,22.37
2024-03-02T11:50:12.124Z,22.38
2024-03-02T11:52:38.343Z,22.37
2024-03-02T11:55:04.827Z,22.37
2024-03-02T11:57:31.172Z,22.36
2024-03-02T11:59:57.568Z,22.36
2024-03-02T12:02:23.879Z,22.35
2024-03-02T12:04:50.199Z,22.36
2024-03-02T12:07:16.519Z,22.34
2024-03-02T12:09:43.042Z,22.34
2024-03-02T12:12:09.422Z,22.34
2024-03-02T12:14:35.881Z,22.35
2024-03-02T12:17:02.316Z,22.35
2024-03-02T12:19:28.719Z,22.36
2024-03-02T12:21:55.191Z,22.35
2024-03-02T12:24:21.531Z,22.34
2024-03-02T12:26:47.907Z,22.37
2024-03-02T12:29:14.341Z,22.34
2024-03-02T12:31:40.796Z,22.35
2024-03-02T12:34:07.368Z,22.35
2024-03-02T12:36:33.698Z,22.35
2024-03-02T12:39:00.238Z,22.35
2024-03-02T12:41:28.272Z,22.36
2024-03-02T12:43:52.971Z,22.36
2024-03-02T12:46:19.290Z,22.35
2024-03-02T12:48:45.749Z,22.34
2024-03-02T12:51:12.216Z,22.36
2024-03-02T12:53:38.592Z,22.35
2024-03-02T12:56:04.940Z,22.36
2024-03-02T12:58:31.253Z,22.36
2024-03-02T13:00:57.794Z,22.37
2024-03-02T13:03:24.121Z,22.37
2024-03-02T13:05:50.516Z,22.38
2024-03-02T13:08:16.840Z,22.36
2024-03-02T13:10:43.242Z,22.37
2024-03-02T13:13:09.749Z,22.36
2024-03-02T13:15:36.025Z,22.36
2024-03-02T13:18:02.486Z,22.36
2024-03-02T13:20:28.857Z,22.36
2024-03-02T13:22:55.290Z,22.36
2024-03-02T13:25:21.597Z,22.37
2024-03-02T13:27:48.082Z,22.37
2024-03-02T13:30:14.552Z,22.37
2024-03-02T13:32:40.862Z,22.37
2024-03-02T13:35:07.325Z,22.36
2024-03-02T13:37:33.758Z,22.37
2024-03-02T13:40:00.346Z,22.36
2024-03-02T13:42:26.499Z,22.37
2024-03-02T13:44:52.984Z,22.36
2024-03-02T13:47:19.402Z,22.37
2024-03-02T13:49:45.917Z,22.36
2024-03-02T13:52:12.409Z,22.35
2024-03-02T13:54:38.681Z,22.36
2024-03-02T13:57:05.020Z,22.35
2024-03-02T13:59:31.431Z,22.34
2024-03-02T14:01:57.927Z,22.35
2024-03-02T14:04:24.253Z,22.34
2024-03-02T14:06:50.674Z,22.34
2024-03-02T14:09:17.050Z,22.33
2024-03-02T14:11:43.498Z,22.34
2024-03-02T14:14:09.888Z,22.33
2024-03-02T14:16:36.365Z,22.34
2024-03-02T14:19:02.718Z,22.33
2024-03-02T14:21:29.859Z,22.32
2024-03-02T14:23:56.279Z,22.33
2024-03-02T14:26:22.657Z,22.32
2024-03-02T14:28:51.031Z,22.32
2024-03-02T14:31:15.316Z,22.33
2024-03-02T14:33:41.698Z,22.32
2024-03-02T14:36:07.983Z,22.33
2024-03-02T14:38:34.354Z,22.31
2024-03-02T14:41:00.789Z,22.32
2024-03-02T14:43:27.042Z,22.31
2024-03-02T14:45:53.576Z,22.31
2024-03-02T14:48:19.936Z,22.32
2024-03-02T14:50:46.369Z,22.33
2024-03-02T14:53:12.852Z,22.33
2024-03-02T14:55:39.284Z,22.35
2024-03-02T14:58:05.796Z,22.34
2024-03-02T15:00:32.291Z,22.35
2024-03-02T15:05:36.706Z,22.35
2024-03-02T15:08:03.026Z,22.35
2024-03-02T15:10:29.364Z,22.35
2024-03-02T15:12:55.722Z,22.34
2024-03-02T15:15:22.105Z,22.34
2024-03-02T15:17:48.525Z,22.32
2024-03-02T15:20:14.853Z,22.33
2024-03-02T15:22:41.172Z,22.32
2024-03-02T15:25:07.792Z,22.32
2024-03-02T15:27:34.119Z,22.32
2024-03-02T15:30:00.406Z,22.32
2024-03-02T15:32:26.793Z,22.32
2024-03-02T15:34:53.273Z,22.32
2024-03-02T15:37:19.546Z,22.31
2024-03-02T15:39:46.016Z,22.31
2024-03-02T15:42:12.430Z,22.31
2024-03-02T15:44:40.549Z,22.29
2024-03-02T15:47:05.172Z,22.31
2024-03-02T15:49:31.482Z,22.29
2024-03-02T15:51:57.835Z,22.27
2024-03-02T15:54:24.320Z,22.27
2024-03-02T15:56:50.909Z,22.27
2024-03-02T15:59:17.355Z,22.27
2024-03-02T16:01:43.972Z,22.27
2024-03-02T16:04:10.191Z,22.28
2024-03-02T16:06:36.471Z,22.27
2024-03-02T16:09:02.947Z,22.26
2024-03-02T16:11:29.395Z,22.26
2024-03-02T16:13:55.652Z,22.24
2024-03-02T16:16:21.972Z,22.25
2024-03-02T16:18:48.481Z,22.25
2024-03-02T16:21:14.849Z,22.24
2024-03-02T16:23:41.282Z,22.24
2024-03-02T16:26:07.593Z,22.24
2024-03-02T16:28:34.195Z,22.24
2024-03-02T16:31:00.480Z,22.21
2024-03-02T16:33:26.916Z,22.23
2024-03-02T16:35:53.202Z,22.22
2024-03-02T16:38:19.585Z,22.22
2024-03-02T16:40:45.907Z,22.20
2024-03-02T16:43:12.366Z,22.22
2024-03-02T16:45:38.725Z,22.21
2024-03-02T16:48:05.048Z,22.20
2024-03-02T16:50:31.440Z,22.19
2024-03-02T16:52:57.847Z,22.17
2024-03-02T16:55:24.205Z,22.19
2024-03-02T16:57:50.719Z,22.18
2024-03-02T17:00:16.991Z,22.19
2024-03-02T17:02:43.357Z,22.18
2024-03-02T17:05:09.712Z,22.16
2024-03-02T17:07:36.157Z,22.17
2024-03-02T17:10:02.493Z,22.16
2024-03-02T17:12:28.867Z,22.16
2024-03-02T17:14:55.139Z,22.16
2024-03-02T17:17:21.578Z,22.16
2024-03-02T17:19:48.033Z,22.16
2024-03-02T17:22:14.431Z,22.16
2024-03-02T17:24:40.860Z,22.14
2024-03-02T17:27:07.225Z,22.13
2024-03-02T17:29:33.544Z,22.13
2024-03-02T17:31:59.865Z,22.14
2024-03-02T17:34:26.263Z,22.13
2024-03-02T17:36:52.674Z,22.12
2024-03-02T17:39:18.919Z,22.14
2024-03-02T17:41:45.302Z,22.12
2024-03-02T17:44:11.743Z,22.12
2024-03-02T17:46:38.180Z,22.13
2024-03-02T17:49:04.722Z,22.13
2024-03-02T17:51:31.045Z,22.13
2024-03-02T17:53:57.350Z,22.13
2024-03-02T17:56:23.786Z,22.12
2024-03-02T17:58:50.255Z,22.13
2024-03-02T18:01:16.909Z,22.12
2024-03-02T18:03:43.007Z,22.11
2024-03-02T18:06:09.315Z,22.09
2024-03-02T18:08:38.838Z,22.10
2024-03-02T18:11:02.224Z,22.10
2024-03-02T18:13:28.629Z,22.08
2024-03-02T18:15:55.279Z,22.08
2024-03-02T18:18:21.487Z,22.09
2024-03-02T18:20:47.893Z,22.09
2024-03-02T18:23:14.472Z,22.09
2024-03-02T18:25:40.697Z,22.10
2024-03-02T18:28:07.140Z,22.11
2024-03-02T18:30:33.599Z,22.12
2024-03-02T18:33:00.018Z,22.12
2024-03-02T18:35:26.426Z,22.12
2024-03-02T18:37:52.883Z,22.13
2024-03-02T18:40:19.195Z,22.13
2024-03-02T18:42:45.561Z,22.16
2024-03-02T18:45:11.821Z,22.16
2024-03-02T18:47:38.158Z,22.16
2024-03-02T18:50:04.453Z,22.14
2024-03-02T18:52:30.847Z,22.14
2024-03-02T18:54:57.292Z,22.13
2024-03-02T18:57:23.649Z,22.13
2024-03-02T18:59:49.983Z,22.13
2024-03-02T19:02:16.381Z,22.13
2024-03-02T19:04:42.695Z,22.12
2024-03-02T19:07:09.171Z,22.10
2024-03-02T19:09:35.381Z,22.10
2024-03-02T19:12:01.737Z,22.09
2024-03-02T19:14:28.202Z,22.09
2024-03-02T19:16:54.526Z,22.08
2024-03-02T19:19:20.933Z,22.07
2024-03-02T19:21:51.394Z,22.07
2024-03-02T19:24:13.728Z,22.06
2024-03-02T19:26:40.128Z,22.06
2024-03-02T19:29:06.548Z,22.05
2024-03-02T19:31:33.028Z,22.06
2024-03-02T19:33:59.420Z,22.06
2024-03-02T19:36:25.837Z,22.04
2024-03-02T19:38:52.181Z,22.03
2024-03-02T19:41:18.698Z,22.04
2024-03-02T19:43:45.129Z,22.03
2024-03-02T19:46:11.598Z,22.04
2024-03-02T19:48:38.037Z,22.04
2024-03-02T19:51:04.345Z,22.03
2024-03-02T19:53:30.785Z,22.03
2024-03-02T19:55:57.106Z,22.02
2024-03-02T19:58:23.502Z,21.99
2024-03-02T20:00:49.928Z,22.01
2024-03-02T20:03:16.292Z,21.99
2024-03-02T20:05:42.644Z,21.98
2024-03-02T20:08:09.038Z,22.01
2024-03-02T20:10:35.468Z,21.98
2024-03-02T20:13:01.951Z,21.99
2024-03-02T20:15:28.279Z,21.97
2024-03-02T20:17:54.706Z,21.98
2024-03-02T20:20:21.029Z,21.97
2024-03-02T20:22:47.370Z,21.96
2024-03-02T20:25:13.829Z,21.96
2024-03-02T20:27:40.126Z,21.97
2024-03-02T20:30:06.556Z,21.97
2024-03-02T20:32:32.983Z,21.96
2024-03-02T20:34:59.416Z,21.96
2024-03-02T20:37:25.796Z,21.95
2024-03-02T20:39:52.315Z,21.95
2024-03-02T20:42:18.719Z,21.93
2024-03-02T20:44:45.161Z,21.94
2024-03-02T20:47:11.477Z,21.94
2024-03-02T20:49:37.940Z,21.93
2024-03-02T20:52:04.358Z,21.93
2024-03-02T20:54:30.680Z,21.93
2024-03-02T20:56:57.113Z,21.94
2024-03-02T20:59:23.553Z,21.91
2024-03-02T21:01:49.903Z,21.93
2024-03-02T21:04:16.389Z,21.92
2024-03-02T21:06:42.695Z,21.91
2024-03-02T21:09:09.075Z,21.92
2024-03-02T21:11:35.472Z,21.91
2024-03-02T21:14:01.835Z,21.90
2024-03-02T21:16:28.314Z,21.91
2024-03-02T21:18:54.637Z,21.92
2024-03-02T21:21:21.039Z,21.91
2024-03-02T21:23:47.358Z,21.90
2024-03-02T21:26:13.806Z,21.90
2024-03-02T21:28:40.235Z,21.88
2024-03-02T21:31:06.701Z,21.90
2024-03-02T21:33:33.127Z,21.89
2024-03-02T21:35:59.536Z,21.88
2024-03-02T21:38:25.970Z,21.88
2024-03-02T21:40:52.284Z,21.87
2024-03-02T21:43:18.928Z,21.88
2024-03-02T21:45:44.934Z,21.88
2024-03-02T21:48:11.327Z,21.87
2024-03-02T21:50:37.795Z,21.88
2024-03-02T21:53:04.171Z,21.88
2024-03-02T21:55:30.590Z,21.87
2024-03-02T21:57:57.050Z,21.87
2024-03-02T22:00:23.507Z,21.87
2024-03-02T22:02:49.949Z,21.87
2024-03-02T22:05:16.330Z,21.89
2024-03-02T22:07:42.659Z,21.88
2024-03-02T22:10:09.074Z,21.85
2024-03-02T22:12:35.479Z,21.87
2024-03-02T22:15:02.039Z,21.87
2024-03-02T22:17:28.302Z,21.87
2024-03-02T22:19:54.785Z,21.87
2024-03-02T22:22:21.054Z,21.84
2024-03-02T22:24:47.363Z,21.87
2024-03-02T22:27:13.649Z,21.85
2024-03-02T22:29:40.043Z,21.85
2024-03-02T22:32:06.376Z,21.87
2024-03-02T22:34:32.793Z,21.87
2024-03-02T22:36:59.205Z,21.85
2024-03-02T22:39:25.559Z,21.84
2024-03-02T22:41:51.904Z,21.84
2024-03-02T22:44:18.327Z,21.85
2024-03-02T22:46:44.766Z,21.84
2024-03-02T22:49:11.257Z,21.84
2024-03-02T22:51:37.555Z,21.84
2024-03-02T22:54:03.956Z,21.83
2024-03-02T22:56:30.405Z,21.84
2024-03-02T22:58:56.825Z,21.83
2024-03-02T23:01:23.191Z,21.83
2024-03-02T23:03:49.521Z,21.84
2024-03-02T23:06:15.910Z,21.84
2024-03-02T23:08:42.349Z,21.82
2024-03-02T23:11:08.728Z,21.83
2024-03-02T23:13:34.974Z,21.83
2024-03-02T23:16:01.325Z,21.84
2024-03-02T23:18:27.762Z,21.82
2024-03-02T23:20:54.126Z,21.84
2024-03-02T23:23:20.649Z,21.83
2024-03-02T23:25:47.087Z,21.83
2024-03-02T23:28:13.572Z,21.83
2024-03-02T23:30:39.885Z,21.83
2024-03-02T23:33:06.228Z,21.84
2024-03-02T23:35:32.483Z,21.82
2024-03-02T23:37:58.941Z,21.82
2024-03-02T23:40:25.406Z,21.82
2024-03-02T23:42:51.810Z,21.83
2024-03-02T23:45:18.105Z,21.83
2024-03-02T23:47:44.448Z,21.83
2024-03-02T23:50:10.747Z,21.81
2024-03-02T23:52:37.246Z,21.80
2024-03-02T23:55:05.520Z,21.82
2024-03-02T23:57:30.008Z,21.80
2024-03-02T23:59:56.425Z,21.82
